Time;durP1;ratioP1;P1;durP2;ratioP2;P2;SDS_P1;SDS_P2;PMS_P1;PMS_P2;Temp;Humidity;BMP_temperature;BMP_pressure;BME280_temperature;BME280_humidity;BME280_pressure;Samples;Min_cycle;Max_cycle;Signal;HPM_P1;HPM_P2
2022/03/11 00:01:06;;;;;;;0.50;0.40;;;6.00;82.00;;;;;;5032062;28;20192;-77
2022/03/11 00:03:33;;;;;;;0.70;0.50;;;6.00;82.60;;;;;;5031803;28;20195;-76
2022/03/11 00:06:01;;;;;;;0.50;0.50;;;6.00;83.20;;;;;;5032816;28;20206;-77
2022/03/11 00:08:28;;;;;;;0.50;0.40;;;5.90;84.30;;;;;;5032547;28;20219;-77
2022/03/11 00:10:54;;;;;;;0.50;0.40;;;5.90;85.10;;;;;;5030947;28;20187;-77
2022/03/11 00:13:21;;;;;;;0.50;0.40;;;5.90;85.70;;;;;;5032981;28;20191;-77
2022/03/11 00:15:48;;;;;;;0.50;0.40;;;5.90;86.60;;;;;;5032625;28;20187;-78
2022/03/11 00:18:14;;;;;;;0.50;0.40;;;5.80;88.00;;;;;;5032540;28;20225;-77
2022/03/11 00:20:41;;;;;;;1.92;1.75;;;5.70;88.50;;;;;;5032018;28;20198;-77
2022/03/11 00:23:09;;;;;;;2.05;1.70;;;5.70;90.10;;;;;;5032344;28;20211;-76
2022/03/11 00:25:36;;;;;;;0.50;0.40;;;5.60;90.80;;;;;;5032459;28;20703;-77
2022/03/11 00:28:03;;;;;;;1.15;1.15;;;5.60;91.10;;;;;;5031975;28;20726;-77
2022/03/11 00:30:30;;;;;;;0.50;0.40;;;5.60;91.70;;;;;;5031921;28;20202;-77
2022/03/11 00:32:57;;;;;;;0.50;0.40;;;5.60;92.40;;;;;;5032453;28;20198;-77
2022/03/11 00:35:23;;;;;;;0.50;0.40;;;5.50;92.70;;;;;;5032530;28;20187;-77
2022/03/11 00:37:50;;;;;;;0.50;0.40;;;5.40;95.20;;;;;;5032073;28;20215;-77
2022/03/11 00:40:18;;;;;;;1.13;1.13;;;5.30;95.70;;;;;;5031340;28;20203;-76
2022/03/11 00:42:45;;;;;;;0.93;0.93;;;5.40;95.20;;;;;;5031953;28;20195;-77
2022/03/11 00:45:12;;;;;;;0.60;0.57;;;5.30;96.20;;;;;;5031794;28;20222;-76
2022/03/11 00:47:38;;;;;;;0.50;0.40;;;5.30;97.20;;;;;;5032391;28;20187;-76
2022/03/11 00:50:06;;;;;;;0.50;0.40;;;5.20;97.50;;;;;;5031386;28;20191;-76
2022/03/11 00:52:32;;;;;;;0.50;0.43;;;5.20;98.60;;;;;;5031920;28;20189;-76
2022/03/11 00:54:59;;;;;;;0.70;0.70;;;5.10;99.60;;;;;;5032294;28;20198;-76
2022/03/11 00:57:27;;;;;;;0.50;0.40;;;5.10;99.90;;;;;;5032010;28;20203;-77
2022/03/11 00:59:54;;;;;;;0.50;0.40;;;5.00;99.90;;;;;;5031178;28;20277;-76
2022/03/11 01:02:21;;;;;;;0.50;0.40;;;4.90;99.90;;;;;;5031573;28;20191;-76
2022/03/11 01:04:49;;;;;;;0.50;0.40;;;4.90;99.90;;;;;;5029954;28;20207;-77
2022/03/11 01:07:16;;;;;;;1.45;1.35;;;4.90;99.90;;;;;;5031644;28;20207;-77
2022/03/11 01:09:43;;;;;;;0.50;0.40;;;4.90;99.90;;;;;;5030493;28;20234;-77
2022/03/11 01:12:10;;;;;;;0.50;0.40;;;4.90;99.90;;;;;;5032210;28;20243;-76
2022/03/11 01:14:38;;;;;;;0.50;0.40;;;4.90;99.90;;;;;;5032046;28;20202;-77
2022/03/11 01:17:05;;;;;;;0.50;0.40;;;4.90;99.90;;;;;;5031435;28;20198;-77
2022/03/11 01:19:31;;;;;;;0.50;0.40;;;4.90;99.90;;;;;;5030819;28;20763;-77
2022/03/11 01:21:58;;;;;;;0.50;0.40;;;4.90;99.90;;;;;;5031678;28;20225;-78
2022/03/11 01:24:25;;;;;;;0.50;0.40;;;4.90;99.90;;;;;;5031363;28;20198;-77
2022/03/11 01:26:52;;;;;;;0.50;0.40;;;4.90;99.90;;;;;;5031583;28;20689;-76
2022/03/11 01:29:19;;;;;;;4.30;3.90;;;5.00;99.90;;;;;;5030715;28;20211;-77
2022/03/11 01:31:47;;;;;;;0.50;0.40;;;5.00;99.90;;;;;;5031769;28;20222;-76
2022/03/11 01:34:14;;;;;;;0.50;0.50;;;5.00;99.90;;;;;;5031128;28;20205;-77
2022/03/11 01:36:40;;;;;;;0.50;0.40;;;5.10;99.90;;;;;;5031566;28;20233;-76
2022/03/11 01:39:07;;;;;;;0.50;0.50;;;5.10;99.90;;;;;;5030792;28;20585;-78
2022/03/11 01:41:34;;;;;;;0.50;0.40;;;5.20;99.90;;;;;;5031654;28;20202;-77
2022/03/11 01:44:02;;;;;;;0.50;0.40;;;5.20;99.90;;;;;;5031597;28;20199;-77
2022/03/11 01:46:29;;;;;;;9.98;9.23;;;5.20;99.90;;;;;;5031257;28;20218;-76
2022/03/11 01:48:57;;;;;;;0.50;0.40;;;5.20;99.90;;;;;;5030589;28;20242;-77
2022/03/11 01:51:25;;;;;;;0.50;0.40;;;5.20;99.90;;;;;;5031626;28;20191;-78
2022/03/11 01:53:52;;;;;;;0.50;0.40;;;5.30;99.90;;;;;;5031851;28;20199;-76
2022/03/11 01:56:20;;;;;;;0.50;0.40;;;5.30;99.90;;;;;;5034464;28;20200;-76
2022/03/11 01:58:50;;;;;;;0.50;0.40;;;5.20;99.90;;;;;;5034958;28;20218;-75
2022/03/11 02:01:16;;;;;;;0.50;0.40;;;5.30;99.90;;;;;;5034876;28;20223;-76
2022/03/11 02:03:43;;;;;;;0.70;0.70;;;5.20;99.90;;;;;;5034408;28;20203;-77
2022/03/11 02:06:14;;;;;;;0.50;0.40;;;5.10;99.90;;;;;;5035323;28;20214;-76
2022/03/11 02:08:41;;;;;;;0.50;0.40;;;5.10;99.90;;;;;;5091688;23;20885;-79
2022/03/11 02:11:08;;;;;;;0.50;0.40;;;5.10;99.90;;;;;;5061549;28;20193;-77
2022/03/11 02:13:46;;;;;;;0.77;0.70;;;5.10;99.90;;;;;;5082218;28;20198;-75
2022/03/11 02:16:15;;;;;;;1.23;1.13;;;5.00;99.90;;;;;;5095511;28;20199;-78
2022/03/11 02:18:42;;;;;;;0.50;0.40;;;4.90;99.90;;;;;;5083386;28;20320;-78
2022/03/11 02:21:11;;;;;;;0.50;0.40;;;4.90;99.90;;;;;;5072953;28;20213;-77
2022/03/11 02:23:44;;;;;;;0.50;0.40;;;4.80;99.90;;;;;;5075318;28;20197;-78
2022/03/11 02:26:11;;;;;;;0.50;0.43;;;4.80;99.90;;;;;;5075106;28;20233;-78
2022/03/11 02:28:38;;;;;;;5.28;3.42;;;4.90;99.90;;;;;;5075195;28;20214;-78
2022/03/11 02:31:04;;;;;;;0.50;0.40;;;4.90;99.90;;;;;;5072148;28;20192;-75
2022/03/11 02:33:32;;;;;;;3.33;3.22;;;4.90;99.90;;;;;;5075003;28;20193;-78
2022/03/11 02:35:59;;;;;;;0.50;0.40;;;5.00;99.90;;;;;;5074961;28;20193;-78
2022/03/11 02:38:26;;;;;;;0.50;0.40;;;4.90;99.90;;;;;;5074798;28;20599;-77
2022/03/11 02:40:54;;;;;;;0.50;0.40;;;4.90;99.90;;;;;;5073912;28;20198;-75
2022/03/11 02:43:21;;;;;;;0.50;0.40;;;4.90;99.90;;;;;;5074655;28;20227;-77
2022/03/11 02:45:48;;;;;;;3.80;3.70;;;4.90;99.90;;;;;;5074455;28;20627;-78
2022/03/11 02:48:15;;;;;;;1.08;1.05;;;5.00;99.90;;;;;;5074629;28;20186;-76
2022/03/11 02:50:42;;;;;;;0.50;0.40;;;5.00;99.90;;;;;;5074055;28;20681;-78
2022/03/11 02:53:09;;;;;;;0.60;0.60;;;5.10;99.90;;;;;;5074464;28;20196;-78
2022/03/11 02:55:35;;;;;;;0.50;0.40;;;5.10;99.90;;;;;;5074516;28;20650;-78
2022/03/11 02:58:03;;;;;;;0.50;0.40;;;5.10;99.90;;;;;;5074157;28;20197;-77
2022/03/11 03:00:30;;;;;;;0.60;0.52;;;5.00;99.90;;;;;;5074068;28;20233;-78
2022/03/11 03:02:57;;;;;;;0.50;0.40;;;5.00;99.90;;;;;;5074233;28;20537;-78
2022/03/11 03:05:24;;;;;;;0.82;0.82;;;5.00;99.90;;;;;;5074692;28;21031;-74
2022/03/11 03:07:51;;;;;;;0.50;0.40;;;5.00;99.90;;;;;;5073188;28;20678;-79
2022/03/11 03:10:18;;;;;;;1.38;1.38;;;4.90;99.90;;;;;;5073098;28;20217;-75
2022/03/11 03:12:44;;;;;;;1.10;1.05;;;4.90;99.90;;;;;;5074046;28;20200;-77
2022/03/11 03:15:13;;;;;;;0.50;0.40;;;4.90;99.90;;;;;;5073873;28;20280;-78
2022/03/11 03:17:39;;;;;;;0.50;0.40;;;4.80;99.90;;;;;;5073867;28;20194;-77
2022/03/11 03:20:08;;;;;;;0.52;0.47;;;4.80;99.90;;;;;;5073016;28;20210;-78
2022/03/11 03:22:35;;;;;;;0.50;0.40;;;4.80;99.90;;;;;;5074361;28;20217;-78
2022/03/11 03:25:03;;;;;;;0.50;0.40;;;4.80;99.90;;;;;;5074100;28;20250;-78
2022/03/11 03:27:29;;;;;;;0.70;0.70;;;4.90;99.90;;;;;;5073495;28;20665;-77
2022/03/11 03:29:56;;;;;;;0.50;0.40;;;4.90;99.90;;;;;;5073026;28;20221;-78
2022/03/11 03:32:24;;;;;;;0.60;0.60;;;5.00;99.90;;;;;;5072139;28;20551;-78
2022/03/11 03:34:51;;;;;;;0.50;0.40;;;5.10;99.90;;;;;;5073707;28;20651;-79
2022/03/11 03:37:18;;;;;;;0.73;0.73;;;5.10;99.90;;;;;;5073663;28;20189;-76
2022/03/11 03:39:45;;;;;;;0.50;0.40;;;5.10;99.90;;;;;;5072634;28;20213;-76
2022/03/11 03:42:12;;;;;;;0.50;0.40;;;5.10;99.90;;;;;;5073856;28;20239;-78
2022/03/11 03:44:39;;;;;;;0.50;0.40;;;5.10;99.90;;;;;;5073199;28;20193;-78
2022/03/11 03:47:05;;;;;;;0.50;0.40;;;5.10;99.90;;;;;;5073854;28;20611;-78
2022/03/11 03:49:34;;;;;;;1.67;1.58;;;5.00;99.90;;;;;;5072369;28;20718;-78
2022/03/11 03:52:02;;;;;;;0.60;0.50;;;5.00;99.90;;;;;;5073235;28;20554;-77
2022/03/11 03:54:28;;;;;;;0.50;0.40;;;5.10;99.90;;;;;;5073105;28;20670;-77
2022/03/11 03:56:55;;;;;;;2.08;1.45;;;5.20;99.90;;;;;;5073631;28;20559;-78
2022/03/11 03:59:24;;;;;;;2.17;2.05;;;5.20;99.90;;;;;;5059920;28;20220;-78
2022/03/11 04:01:51;;;;;;;0.50;0.40;;;5.40;99.90;;;;;;5073498;28;20568;-79
2022/03/11 04:04:18;;;;;;;0.50;0.40;;;5.50;99.90;;;;;;5073077;28;20194;-77
2022/03/11 04:06:46;;;;;;;3.08;1.73;;;5.60;99.90;;;;;;5073137;28;20209;-78
2022/03/11 04:09:13;;;;;;;0.85;0.73;;;5.70;99.90;;;;;;5072178;28;20214;-79
2022/03/11 04:11:40;;;;;;;0.50;0.40;;;5.80;99.90;;;;;;5072583;28;20190;-78
2022/03/11 04:14:07;;;;;;;0.50;0.40;;;5.80;99.90;;;;;;5073174;28;20190;-77
2022/03/11 04:16:34;;;;;;;1.70;1.60;;;5.90;99.90;;;;;;5073304;28;20186;-78
2022/03/11 04:19:01;;;;;;;0.60;0.60;;;6.00;99.90;;;;;;5071429;28;20221;-77
2022/03/11 04:21:28;;;;;;;0.50;0.43;;;6.10;99.50;;;;;;5073008;28;20194;-78
2022/03/11 04:23:56;;;;;;;6.63;1.58;;;6.20;98.90;;;;;;5072778;28;20651;-78
2022/03/11 04:26:24;;;;;;;1.25;1.05;;;6.20;98.40;;;;;;5072447;28;20217;-75
2022/03/11 04:28:50;;;;;;;0.50;0.40;;;6.20;98.00;;;;;;5072097;28;20216;-77
2022/03/11 04:31:17;;;;;;;0.50;0.40;;;6.20;97.80;;;;;;5071113;28;20194;-78
2022/03/11 04:33:44;;;;;;;1.45;1.35;;;6.20;97.70;;;;;;5072073;28;20194;-78
2022/03/11 04:36:12;;;;;;;0.50;0.50;;;6.20;97.20;;;;;;5072313;28;20289;-78
2022/03/11 04:38:39;;;;;;;0.50;0.40;;;6.20;96.90;;;;;;5072154;28;20622;-77
2022/03/11 04:41:07;;;;;;;0.77;0.77;;;6.20;96.70;;;;;;5071467;28;20194;-78
2022/03/11 04:43:34;;;;;;;4.75;1.52;;;6.30;96.10;;;;;;5072303;28;20577;-78
2022/03/11 04:46:01;;;;;;;1.50;1.35;;;6.30;95.60;;;;;;5072434;28;20222;-77
2022/03/11 04:48:28;;;;;;;0.50;0.40;;;6.30;95.30;;;;;;5071776;28;20257;-78
2022/03/11 04:50:56;;;;;;;0.50;0.40;;;6.30;95.50;;;;;;5071672;28;20217;-77
2022/03/11 04:53:23;;;;;;;3.50;2.75;;;6.30;95.50;;;;;;5072545;28;20236;-77
2022/03/11 04:55:49;;;;;;;1.30;1.20;;;6.20;95.20;;;;;;5072253;28;20201;-77
2022/03/11 04:58:17;;;;;;;3.65;2.75;;;6.30;95.00;;;;;;5071934;28;20205;-78
2022/03/11 05:00:44;;;;;;;0.60;0.60;;;6.40;94.50;;;;;;5071274;28;20810;-76
2022/03/11 05:03:11;;;;;;;4.10;2.45;;;6.30;94.60;;;;;;5071825;28;20198;-77
2022/03/11 05:05:37;;;;;;;11.32;1.15;;;6.30;94.50;;;;;;5071928;28;20193;-77
2022/03/11 05:08:05;;;;;;;1.70;1.65;;;6.30;94.90;;;;;;5071943;28;20240;-78
2022/03/11 05:10:31;;;;;;;1.15;1.05;;;6.30;94.60;;;;;;5070787;28;20221;-78
2022/03/11 05:12:58;;;;;;;7.47;1.60;;;6.30;94.60;;;;;;5071736;28;20305;-78
2022/03/11 05:15:26;;;;;;;12.05;11.27;;;6.30;94.50;;;;;;5071803;28;20216;-75
2022/03/11 05:17:53;;;;;;;0.50;0.40;;;6.20;94.70;;;;;;5071931;28;20186;-77
2022/03/11 05:20:20;;;;;;;4.03;3.70;;;6.10;95.00;;;;;;5071345;28;20210;-78
2022/03/11 05:22:47;;;;;;;0.50;0.40;;;6.10;95.10;;;;;;5071652;28;20194;-77
2022/03/11 05:25:14;;;;;;;0.50;0.40;;;6.10;95.10;;;;;;5071232;28;20280;-78
2022/03/11 05:27:40;;;;;;;3.17;2.97;;;6.00;95.50;;;;;;5071518;28;20705;-78
2022/03/11 05:30:09;;;;;;;0.50;0.40;;;5.90;95.50;;;;;;5070739;28;20206;-77
2022/03/11 05:32:42;;;;;;;0.60;0.52;;;6.00;95.50;;;;;;5070946;28;20193;-78
2022/03/11 05:35:10;;;;;;;0.50;0.50;;;5.90;96.30;;;;;;5071522;28;20288;-77
2022/03/11 05:37:36;;;;;;;0.50;0.40;;;5.90;96.10;;;;;;5071519;28;20198;-76
2022/03/11 05:40:04;;;;;;;0.50;0.40;;;5.80;96.40;;;;;;5071064;28;20213;-77
2022/03/11 05:42:31;;;;;;;0.50;0.40;;;5.80;96.20;;;;;;5071970;28;20221;-77
2022/03/11 05:44:58;;;;;;;0.63;0.55;;;5.80;96.80;;;;;;5071727;28;20194;-77
2022/03/11 05:47:24;;;;;;;0.60;0.50;;;5.80;96.50;;;;;;5071742;28;20209;-77
2022/03/11 05:49:54;;;;;;;1.90;0.65;;;5.80;96.80;;;;;;5070429;28;20728;-78
2022/03/11 05:52:21;;;;;;;2.75;2.65;;;5.80;96.90;;;;;;5071904;28;20194;-76
2022/03/11 05:54:48;;;;;;;1.35;1.35;;;5.80;96.90;;;;;;5071545;28;20194;-77
2022/03/11 05:57:15;;;;;;;2.05;1.83;;;5.80;97.00;;;;;;5071235;28;20201;-75
2022/03/11 05:59:42;;;;;;;1.55;1.45;;;5.80;97.00;;;;;;5070650;28;20214;-77
2022/03/11 06:02:09;;;;;;;0.50;0.40;;;5.80;96.80;;;;;;5071559;28;20200;-75
2022/03/11 06:04:36;;;;;;;9.98;5.88;;;5.90;97.00;;;;;;5071690;28;20193;-76
2022/03/11 06:07:05;;;;;;;0.70;0.70;;;5.80;97.00;;;;;;5071890;28;20205;-75
2022/03/11 06:09:32;;;;;;;1.40;1.02;;;5.90;96.70;;;;;;5070203;28;20230;-77
2022/03/11 06:11:59;;;;;;;0.63;0.57;;;5.90;97.00;;;;;;5072290;28;20198;-77
2022/03/11 06:14:25;;;;;;;5.82;4.25;;;5.90;97.10;;;;;;5072202;28;20201;-75
2022/03/11 06:16:52;;;;;;;2.40;1.27;;;5.90;97.00;;;;;;5070824;28;20671;-76
2022/03/11 06:19:19;;;;;;;0.70;0.70;;;5.90;96.80;;;;;;5070916;28;20657;-75
2022/03/11 06:21:46;;;;;;;1.92;1.80;;;5.90;96.90;;;;;;5071754;28;20193;-76
2022/03/11 06:24:14;;;;;;;0.60;0.60;;;6.00;97.10;;;;;;5071738;28;20190;-76
2022/03/11 06:26:41;;;;;;;1.48;1.38;;;6.00;97.20;;;;;;5071349;28;20206;-75
2022/03/11 06:29:10;;;;;;;1.73;0.63;;;6.20;96.60;;;;;;5070707;28;20213;-76
2022/03/11 06:31:37;;;;;;;0.50;0.40;;;6.60;96.20;;;;;;5070072;28;20624;-77
2022/03/11 06:34:04;;;;;;;2.88;1.30;;;7.10;95.50;;;;;;5070765;28;20187;-76
2022/03/11 06:36:34;;;;;;;1.65;1.48;;;7.20;94.10;;;;;;5071194;28;20186;-77
2022/03/11 06:39:01;;;;;;;3.60;1.60;;;7.20;93.90;;;;;;5071556;28;20349;-79
2022/03/11 06:41:29;;;;;;;4.15;1.52;;;7.20;93.50;;;;;;5072540;28;20186;-77
2022/03/11 06:43:56;;;;;;;0.63;0.60;;;7.20;93.70;;;;;;5076207;28;20186;-77
2022/03/11 06:46:23;;;;;;;2.40;2.00;;;7.40;93.20;;;;;;5074055;28;20201;-77
2022/03/11 06:48:49;;;;;;;0.70;0.70;;;7.40;92.40;;;;;;5074842;28;20221;-77
2022/03/11 06:51:16;;;;;;;0.70;0.60;;;7.30;92.70;;;;;;5074517;28;20213;-77
2022/03/11 06:53:43;;;;;;;0.57;0.50;;;7.40;92.40;;;;;;5076183;28;20259;-77
2022/03/11 06:56:10;;;;;;;0.50;0.40;;;7.50;92.60;;;;;;5074288;28;20190;-76
2022/03/11 06:58:38;;;;;;;1.45;1.35;;;7.50;92.50;;;;;;5074314;28;20214;-78
2022/03/11 07:01:05;;;;;;;0.82;0.82;;;7.60;92.30;;;;;;5073916;28;20205;-77
2022/03/11 07:03:32;;;;;;;2.25;0.93;;;7.60;92.20;;;;;;5074673;28;20194;-77
2022/03/11 07:05:58;;;;;;;3.50;1.92;;;7.70;91.70;;;;;;5074488;28;20201;-77
2022/03/11 07:08:25;;;;;;;1.80;1.65;;;7.60;91.00;;;;;;5074466;28;20218;-75
2022/03/11 07:10:52;;;;;;;0.77;0.77;;;7.70;91.40;;;;;;5073156;28;20259;-77
2022/03/11 07:13:19;;;;;;;0.50;0.40;;;7.80;91.10;;;;;;5074190;28;20204;-78
2022/03/11 07:15:47;;;;;;;2.03;1.00;;;7.90;91.00;;;;;;5074381;28;20194;-77
2022/03/11 07:18:14;;;;;;;2.67;2.58;;;8.00;90.50;;;;;;5074109;28;20182;-77
2022/03/11 07:20:41;;;;;;;4.32;1.40;;;8.00;89.90;;;;;;5073517;28;20209;-77
2022/03/11 07:23:07;;;;;;;0.50;0.40;;;8.10;90.10;;;;;;5073732;28;20186;-78
2022/03/11 07:25:36;;;;;;;4.30;3.83;;;8.10;89.00;;;;;;5074202;28;20201;-77
2022/03/11 07:28:03;;;;;;;3.08;2.55;;;8.20;88.20;;;;;;5074066;28;20220;-78
2022/03/11 07:30:29;;;;;;;0.73;0.60;;;8.30;87.70;;;;;;5072953;28;20809;-77
2022/03/11 07:32:57;;;;;;;0.50;0.45;;;8.50;86.90;;;;;;5072919;28;20662;-78
2022/03/11 07:35:24;;;;;;;0.60;0.50;;;8.80;86.10;;;;;;5073336;28;20202;-77
2022/03/11 07:37:51;;;;;;;1.05;0.95;;;9.10;83.80;;;;;;5073613;28;20183;-77
2022/03/11 07:40:18;;;;;;;4.00;3.80;;;9.30;83.60;;;;;;5073025;28;20292;-78
2022/03/11 07:42:45;;;;;;;0.90;0.90;;;9.30;82.60;;;;;;5073297;28;20197;-78
2022/03/11 07:45:13;;;;;;;2.70;1.75;;;9.80;80.70;;;;;;5073562;28;20551;-77
2022/03/11 07:47:41;;;;;;;3.38;3.25;;;10.00;76.90;;;;;;5073537;28;20215;-77
2022/03/11 07:50:11;;;;;;;4.43;4.22;;;10.50;76.10;;;;;;5072857;28;20214;-77
2022/03/11 07:52:38;;;;;;;2.03;1.88;;;10.80;71.80;;;;;;5073338;28;20196;-78
2022/03/11 07:55:07;;;;;;;2.67;2.58;;;11.00;71.50;;;;;;5074325;28;20231;-77
2022/03/11 07:57:36;;;;;;;1.08;1.08;;;12.10;70.90;;;;;;5075016;28;20189;-75
2022/03/11 08:00:06;;;;;;;1.80;1.00;;;12.90;65.40;;;;;;5085707;28;20214;-75
2022/03/11 08:02:34;;;;;;;1.75;1.65;;;13.60;62.80;;;;;;5076320;28;20193;-75
2022/03/11 08:05:01;;;;;;;0.50;0.40;;;14.00;60.20;;;;;;5072988;28;20683;-76
2022/03/11 08:07:29;;;;;;;0.60;0.57;;;14.60;58.90;;;;;;5073253;28;20258;-76
2022/03/11 08:09:56;;;;;;;0.50;0.40;;;15.00;57.40;;;;;;5072408;28;20272;-75
2022/03/11 08:12:23;;;;;;;0.50;0.40;;;15.70;55.00;;;;;;5073329;28;20201;-71
2022/03/11 08:14:50;;;;;;;0.50;0.40;;;15.60;53.80;;;;;;5073500;28;20190;-76
2022/03/11 08:17:17;;;;;;;2.33;1.87;;;16.00;54.00;;;;;;5073126;28;20483;-78
2022/03/11 08:19:44;;;;;;;3.83;3.53;;;16.10;52.00;;;;;;5072041;28;20985;-78
2022/03/11 08:22:12;;;;;;;1.57;1.47;;;15.70;51.10;;;;;;5073436;28;20436;-77
2022/03/11 08:24:40;;;;;;;2.30;2.10;;;15.60;52.30;;;;;;5072792;28;20475;-78
2022/03/11 08:27:08;;;;;;;0.80;0.80;;;17.00;51.70;;;;;;5073054;28;20474;-78
2022/03/11 08:29:34;;;;;;;7.37;1.00;;;18.10;50.00;;;;;;5071757;28;20447;-77
2022/03/11 08:32:02;;;;;;;4.03;1.10;;;17.90;49.20;;;;;;5072014;28;20439;-78
2022/03/11 08:34:29;;;;;;;2.30;2.10;;;18.10;48.20;;;;;;5073049;28;20539;-77
2022/03/11 08:36:56;;;;;;;1.77;1.67;;;18.40;47.90;;;;;;5073500;28;20436;-78
2022/03/11 08:39:22;;;;;;;1.10;1.10;;;18.70;46.60;;;;;;5072119;28;20465;-76
2022/03/11 08:41:50;;;;;;;2.40;1.47;;;17.90;46.80;;;;;;5073257;28;20816;-77
2022/03/11 08:44:17;;;;;;;1.90;1.80;;;18.00;47.00;;;;;;5072552;28;20439;-77
2022/03/11 08:46:44;;;;;;;0.50;0.37;;;18.30;47.10;;;;;;5073243;28;20448;-77
2022/03/11 08:49:11;;;;;;;1.63;1.57;;;19.10;46.70;;;;;;5071906;28;20502;-77
2022/03/11 08:51:39;;;;;;;6.80;2.83;;;19.40;45.50;;;;;;5073095;28;20447;-77
2022/03/11 08:54:05;;;;;;;0.83;0.50;;;18.50;45.10;;;;;;5072676;28;20482;-77
2022/03/11 08:56:32;;;;;;;4.30;2.33;;;19.40;45.80;;;;;;5072343;28;20452;-76
2022/03/11 08:59:00;;;;;;;2.10;2.00;;;19.40;45.60;;;;;;5071486;28;20452;-75
2022/03/11 09:01:27;;;;;;;1.77;1.67;;;18.90;45.00;;;;;;5071690;28;20446;-75
2022/03/11 09:03:54;;;;;;;1.47;1.37;;;18.80;46.50;;;;;;5072529;28;20448;-76
2022/03/11 09:06:21;;;;;;;1.77;1.67;;;19.50;45.10;;;;;;5071941;28;20440;-75
2022/03/11 09:08:48;;;;;;;0.90;0.90;;;18.50;44.60;;;;;;5071420;28;20482;-73
2022/03/11 09:11:14;;;;;;;0.50;0.40;;;18.30;45.40;;;;;;5072095;28;20432;-76
2022/03/11 09:13:43;;;;;;;5.13;4.63;;;18.70;46.20;;;;;;5077631;23;20472;-80
2022/03/11 09:16:11;;;;;;;0.50;0.30;;;20.00;45.30;;;;;;5067697;28;20439;-79
2022/03/11 09:18:38;;;;;;;0.50;0.30;;;20.80;44.20;;;;;;5060308;28;20429;-79
2022/03/11 09:21:04;;;;;;;1.43;1.33;;;21.40;44.00;;;;;;5056179;28;20470;-79
2022/03/11 09:23:31;;;;;;;1.40;1.30;;;22.30;43.30;;;;;;5052322;28;20458;-79
2022/03/11 09:25:58;;;;;;;0.63;0.57;;;21.20;42.30;;;;;;5038192;28;20441;-79
2022/03/11 09:28:25;;;;;;;2.17;1.63;;;20.10;43.00;;;;;;5037994;28;20474;-79
2022/03/11 09:30:52;;;;;;;1.37;1.37;;;18.80;43.10;;;;;;5037570;28;20441;-78
2022/03/11 09:33:21;;;;;;;1.27;1.27;;;19.90;44.60;;;;;;5036522;28;20523;-80
2022/03/11 09:35:47;;;;;;;0.60;0.40;;;20.60;43.10;;;;;;5037267;28;20474;-79
2022/03/11 09:38:14;;;;;;;1.43;1.23;;;20.00;43.70;;;;;;5037951;28;20815;-80
2022/03/11 09:40:43;;;;;;;1.43;1.17;;;20.40;42.70;;;;;;5036263;28;20457;-79
2022/03/11 09:43:11;;;;;;;3.03;2.00;;;20.60;42.80;;;;;;5036907;28;20465;-79
2022/03/11 09:45:38;;;;;;;2.03;1.37;;;20.60;42.30;;;;;;5036918;28;20464;-79
2022/03/11 09:48:06;;;;;;;1.73;1.60;;;20.90;42.80;;;;;;5037347;28;20879;-80
2022/03/11 09:50:35;;;;;;;0.50;0.40;;;21.30;42.40;;;;;;5037186;28;20513;-79
2022/03/11 09:53:02;;;;;;;0.50;0.30;;;22.20;41.90;;;;;;5038194;28;20892;-81
2022/03/11 09:55:29;;;;;;;0.50;0.30;;;21.20;42.20;;;;;;5037196;28;20468;-79
2022/03/11 09:57:56;;;;;;;7.00;3.40;;;21.80;42.40;;;;;;5038236;28;20958;-80
2022/03/11 10:00:23;;;;;;;0.60;0.50;;;21.00;41.40;;;;;;5038196;28;20467;-79
2022/03/11 10:02:49;;;;;;;3.13;2.83;;;21.20;42.10;;;;;;5038720;28;20549;-81
2022/03/11 10:05:17;;;;;;;5.20;2.00;;;21.30;41.80;;;;;;5038203;28;20807;-80
2022/03/11 10:07:45;;;;;;;2.67;2.40;;;19.10;42.80;;;;;;5037737;28;20498;-79
2022/03/11 10:10:15;;;;;;;4.87;3.67;;;18.80;43.50;;;;;;5036363;28;20509;-80
2022/03/11 10:12:44;;;;;;;3.80;1.70;;;18.10;44.30;;;;;;5036947;28;20438;-79
2022/03/11 10:15:11;;;;;;;1.43;1.33;;;18.80;44.90;;;;;;5036450;28;20453;-80
2022/03/11 10:17:40;;;;;;;4.97;2.00;;;19.70;43.70;;;;;;5040431;28;20433;-80
2022/03/11 10:20:10;;;;;;;4.83;3.03;;;19.90;43.00;;;;;;5039887;28;20448;-80
2022/03/11 10:22:38;;;;;;;5.77;5.40;;;19.70;43.50;;;;;;5041441;28;20434;-79
2022/03/11 10:25:13;;;;;;;0.60;0.60;;;19.70;43.40;;;;;;5040474;28;20847;-80
2022/03/11 10:27:57;;;;;;;0.90;0.90;;;20.40;43.50;;;;;;5040118;28;20437;-79
2022/03/11 10:30:25;;;;;;;5.00;1.40;;;19.60;43.00;;;;;;5037559;28;20443;-79
2022/03/11 10:32:52;;;;;;;0.70;0.70;;;18.90;43.70;;;;;;5025228;28;20524;-79
2022/03/11 10:35:20;;;;;;;1.27;1.13;;;19.40;44.20;;;;;;5021050;28;20531;-78
2022/03/11 10:38:04;;;;;;;3.30;3.10;;;20.80;44.30;;;;;;5019584;28;20427;-80
2022/03/11 10:40:33;;;;;;;1.60;1.50;;;21.20;42.00;;;;;;5019761;28;20435;-80
2022/03/11 10:43:10;;;;;;;4.93;0.97;;;20.50;42.20;;;;;;5036421;28;20457;-79
2022/03/11 10:45:53;;;;;;;2.77;2.57;;;20.20;42.60;;;;;;5037733;28;20438;-79
2022/03/11 10:48:35;;;;;;;2.37;2.00;;;20.00;43.30;;;;;;5039822;28;20464;-80
2022/03/11 10:51:02;;;;;;;2.47;2.27;;;19.50;43.00;;;;;;5039065;28;20457;-80
2022/03/11 10:53:29;;;;;;;2.73;2.53;;;19.40;43.60;;;;;;5039191;28;20457;-80
2022/03/11 10:56:06;;;;;;;5.50;2.60;;;18.90;43.50;;;;;;5040113;28;20796;-80
2022/03/11 10:58:33;;;;;;;2.30;2.13;;;19.50;44.50;;;;;;5039705;28;20940;-80
2022/03/11 11:01:00;;;;;;;0.63;0.63;;;20.20;43.20;;;;;;5037596;28;20475;-81
2022/03/11 11:03:27;;;;;;;0.73;0.73;;;20.90;42.80;;;;;;5039700;28;20469;-80
2022/03/11 11:05:55;;;;;;;0.60;0.60;;;20.80;43.40;;;;;;5040066;28;20887;-80
2022/03/11 11:08:23;;;;;;;1.33;0.93;;;19.90;43.40;;;;;;5040060;28;20473;-80
2022/03/11 11:10:50;;;;;;;2.00;1.90;;;20.70;43.00;;;;;;5039227;28;20453;-80
2022/03/11 11:13:19;;;;;;;0.80;0.80;;;21.30;42.20;;;;;;5039033;28;20496;-81
2022/03/11 11:15:46;;;;;;;2.87;2.67;;;20.80;42.90;;;;;;5038699;28;20442;-77
2022/03/11 11:18:14;;;;;;;0.50;0.30;;;21.40;42.20;;;;;;5040280;28;20453;-79
2022/03/11 11:20:46;;;;;;;5.57;4.87;;;21.40;41.90;;;;;;5039912;28;20871;-79
2022/03/11 11:23:15;;;;;;;0.50;0.40;;;22.00;42.20;;;;;;5040383;28;20458;-80
2022/03/11 11:25:43;;;;;;;5.00;3.47;;;21.90;41.80;;;;;;5039175;28;20862;-80
2022/03/11 11:28:11;;;;;;;1.90;1.13;;;20.80;42.00;;;;;;5038959;28;20470;-79
2022/03/11 11:30:40;;;;;;;2.80;1.67;;;20.20;42.60;;;;;;5038482;28;20796;-79
2022/03/11 11:33:08;;;;;;;0.50;0.40;;;20.00;42.60;;;;;;5048399;28;20469;-78
2022/03/11 11:35:37;;;;;;;1.27;0.83;;;19.90;43.40;;;;;;5051966;28;20514;-80
2022/03/11 11:38:07;;;;;;;0.60;0.40;;;19.90;43.60;;;;;;5054162;28;20473;-79
2022/03/11 11:40:38;;;;;;;1.97;1.87;;;19.60;43.70;;;;;;5047258;28;20472;-80
2022/03/11 11:43:26;;;;;;;2.43;2.33;;;20.50;43.30;;;;;;5039215;28;20466;-79
2022/03/11 11:45:56;;;;;;;2.53;2.30;;;19.30;43.30;;;;;;5046415;28;20436;-80
2022/03/11 11:49:00;;;;;;;1.13;1.13;;;19.30;43.60;;;;;;5056484;28;20516;-80
2022/03/11 11:51:58;;;;;;;1.43;1.33;;;18.80;44.30;;;;;;5055236;28;20469;-79
2022/03/11 11:54:45;;;;;;;0.90;0.90;;;19.10;45.10;;;;;;5055485;28;20494;-80
2022/03/11 11:57:23;;;;;;;1.77;1.60;;;19.30;44.80;;;;;;5046936;28;20781;-80
2022/03/11 11:59:50;;;;;;;4.73;3.47;;;20.40;44.50;;;;;;5037080;28;20452;-79
2022/03/11 12:02:26;;;;;;;1.97;1.80;;;20.70;44.40;;;;;;5037410;28;20448;-80
2022/03/11 12:04:53;;;;;;;10.33;3.40;;;20.80;44.20;;;;;;5037491;28;20457;-80
2022/03/11 12:07:22;;;;;;;1.27;0.73;;;21.20;44.00;;;;;;5038331;28;20442;-80
2022/03/11 12:09:54;;;;;;;1.43;0.87;;;21.50;43.90;;;;;;5037000;28;20853;-79
2022/03/11 12:13:01;;;;;;;1.43;1.07;;;21.50;43.40;;;;;;5038511;28;20480;-80
2022/03/11 12:15:39;;;;;;;2.30;1.10;;;21.10;43.70;;;;;;5037860;28;20432;-79
2022/03/11 12:18:34;;;;;;;3.90;0.60;;;20.10;44.50;;;;;;5038886;28;20419;-80
2022/03/11 12:21:01;;;;;;;4.40;2.53;;;20.50;44.00;;;;;;5037923;28;20892;-80
2022/03/11 12:23:32;;;;;;;0.50;0.30;;;19.40;44.10;;;;;;5038268;28;20824;-79
2022/03/11 12:26:09;;;;;;;1.20;1.07;;;19.90;45.40;;;;;;5037470;28;20493;-80
2022/03/11 12:28:39;;;;;;;0.90;0.53;;;20.10;45.00;;;;;;5035160;28;20840;-79
2022/03/11 12:31:07;;;;;;;0.50;0.30;;;20.60;45.50;;;;;;5036320;28;20974;-80
2022/03/11 12:33:37;;;;;;;1.00;1.00;;;20.30;44.70;;;;;;5037660;28;20450;-79
2022/03/11 12:36:08;;;;;;;2.00;1.90;;;19.90;45.40;;;;;;5037092;28;20442;-80
2022/03/11 12:38:37;;;;;;;0.50;0.30;;;20.30;45.60;;;;;;5037255;28;20739;-80
2022/03/11 12:41:07;;;;;;;2.83;2.70;;;20.70;44.80;;;;;;5036444;28;20435;-81
2022/03/11 12:43:35;;;;;;;1.37;1.27;;;21.20;44.50;;;;;;5037401;28;20980;-81
2022/03/11 12:46:03;;;;;;;0.60;0.53;;;20.90;44.10;;;;;;5037374;28;20745;-80
2022/03/11 12:48:31;;;;;;;1.33;1.23;;;20.30;44.80;;;;;;5037509;28;20561;-80
2022/03/11 12:50:59;;;;;;;0.57;0.47;;;20.90;45.10;;;;;;5035821;28;20443;-79
2022/03/11 12:53:26;;;;;;;2.87;2.73;;;21.20;44.80;;;;;;5036758;28;21022;-80
2022/03/11 12:55:55;;;;;;;1.13;1.13;;;21.00;44.10;;;;;;5037560;28;20434;-81
2022/03/11 12:58:27;;;;;;;1.23;1.13;;;21.10;44.60;;;;;;5036728;28;20438;-79